Terminal Aerodrome Forecast
Issued by NWS

Home | Current Version | Previous Version | Text Only | Print | Product List | Glossary On
Versions: 1 2 3 4 5 6 7 8 9 10 11 12 13 14 15 16 17 18 19 20
000
FTUS41 KPHI 290523
TAFPNE
TAF
KPNE 290523Z 2906/3006 04004KT P6SM SKC
     FM291400 09005KT P6SM SKC
     FM291800 15006KT P6SM FEW050 SCT250
     FM300000 15004KT P6SM SCT250=

USA.gov is the U.S. government's official web portal to all federal, state and local government web resources and services.